Time;durP1;ratioP1;P1;durP2;ratioP2;P2;SDS_P1;SDS_P2;PMS_P1;PMS_P2;Temp;Humidity;BMP_temperature;BMP_pressure;BME280_temperature;BME280_humidity;BME280_pressure;Samples;Min_cycle;Max_cycle;Signal;HPM_P1;HPM_P2
2021/09/22 00:01:23;;;;;;;12.70;9.48;;;21.50;63.50;;;;;;5171914;28;20410;-59
2021/09/22 00:03:55;;;;;;;12.75;9.32;;;21.60;63.50;;;;;;5177617;28;20061;-63
2021/09/22 00:06:28;;;;;;;12.00;10.13;;;21.50;63.50;;;;;;5182156;28;20080;-60
2021/09/22 00:09:02;;;;;;;13.57;9.63;;;21.60;63.60;;;;;;5177832;28;20037;-58
2021/09/22 00:11:35;;;;;;;11.90;9.40;;;21.50;63.60;;;;;;5176868;28;20050;-56
2021/09/22 00:14:07;;;;;;;12.43;9.23;;;21.50;63.50;;;;;;5175017;28;20100;-60
2021/09/22 00:16:40;;;;;;;13.57;10.60;;;21.50;63.60;;;;;;5178661;28;20457;-60
2021/09/22 00:19:12;;;;;;;13.63;9.48;;;21.50;63.60;;;;;;5175228;28;20060;-60
2021/09/22 00:21:45;;;;;;;10.60;9.02;;;21.50;63.50;;;;;;5169492;28;20057;-60
2021/09/22 00:24:17;;;;;;;12.07;9.43;;;21.50;63.60;;;;;;5173113;28;20430;-59
2021/09/22 00:26:50;;;;;;;13.40;9.75;;;21.50;63.60;;;;;;5169244;28;20459;-58
2021/09/22 00:29:22;;;;;;;12.45;9.70;;;21.50;63.50;;;;;;5175085;28;20038;-60
2021/09/22 00:31:55;;;;;;;12.35;8.88;;;21.50;63.60;;;;;;5169804;28;20056;-61
2021/09/22 00:34:27;;;;;;;14.02;9.18;;;21.50;63.60;;;;;;5185685;28;20053;-61
2021/09/22 00:37:00;;;;;;;14.38;9.23;;;21.50;63.70;;;;;;5174154;28;20515;-60
2021/09/22 00:39:36;;;;;;;11.55;9.23;;;21.50;63.70;;;;;;5172675;28;20057;-61
2021/09/22 00:42:08;;;;;;;14.82;9.70;;;21.50;63.70;;;;;;5172778;28;21378;-61
2021/09/22 00:44:56;;;;;;;14.10;8.95;;;21.50;63.70;;;;;;5172513;28;20046;-59
2021/09/22 00:47:29;;;;;;;10.82;9.32;;;21.50;63.30;;;;;;5176478;28;20053;-60
2021/09/22 00:50:10;;;;;;;14.57;9.43;;;21.50;63.70;;;;;;5181102;28;20042;-60
2021/09/22 00:52:42;;;;;;;13.63;9.15;;;21.50;63.70;;;;;;5192189;28;20053;-60
2021/09/22 00:55:15;;;;;;;11.57;8.75;;;21.50;63.70;;;;;;5175345;28;20160;-60
2021/09/22 00:57:53;;;;;;;11.32;9.00;;;21.50;63.70;;;;;;5188476;28;20049;-60
2021/09/22 01:00:28;;;;;;;12.75;8.65;;;21.50;63.70;;;;;;5191909;28;20053;-62
2021/09/22 01:03:01;;;;;;;12.27;8.18;;;21.50;63.70;;;;;;5176041;28;20050;-61
2021/09/22 01:05:33;;;;;;;11.20;9.50;;;21.50;63.80;;;;;;5179515;28;20064;-61
2021/09/22 01:08:09;;;;;;;10.45;8.70;;;21.50;63.70;;;;;;5175125;28;20303;-59
2021/09/22 01:10:44;;;;;;;10.95;9.15;;;21.50;63.60;;;;;;5189364;28;20049;-61
2021/09/22 01:13:17;;;;;;;11.05;8.73;;;21.50;63.60;;;;;;5193920;28;20060;-59
2021/09/22 01:15:50;;;;;;;12.68;8.75;;;21.40;63.50;;;;;;5175140;28;20045;-60
2021/09/22 01:18:23;;;;;;;11.55;9.13;;;21.40;63.40;;;;;;5177051;28;20052;-59
2021/09/22 01:20:58;;;;;;;11.70;8.57;;;21.50;63.50;;;;;;5174731;28;20034;-56
2021/09/22 01:23:32;;;;;;;10.68;8.70;;;21.40;63.50;;;;;;5178556;28;20058;-61
2021/09/22 01:26:09;;;;;;;11.35;8.73;;;21.40;63.50;;;;;;5180284;28;20056;-58
2021/09/22 01:28:50;;;;;;;11.73;8.52;;;21.40;63.50;;;;;;5164434;28;20038;-58
2021/09/22 01:31:24;;;;;;;11.68;8.63;;;21.40;63.50;;;;;;5175756;28;20069;-60
2021/09/22 01:34:00;;;;;;;11.75;9.10;;;21.40;63.50;;;;;;5188358;28;20041;-60
2021/09/22 01:36:52;;;;;;;10.10;8.82;;;21.40;63.30;;;;;;5174521;28;20434;-60
2021/09/22 01:39:25;;;;;;;10.52;8.88;;;21.40;63.40;;;;;;5194599;28;20045;-58
2021/09/22 01:41:58;;;;;;;9.70;8.55;;;21.40;63.50;;;;;;5176073;28;20053;-62
2021/09/22 01:44:33;;;;;;;11.48;8.43;;;21.40;63.40;;;;;;5192043;28;20052;-59
2021/09/22 01:47:15;;;;;;;14.40;9.13;;;21.40;63.40;;;;;;5185684;28;20046;-59
2021/09/22 01:50:08;;;;;;;11.30;7.65;;;21.40;63.50;;;;;;5191778;28;20053;-61
2021/09/22 01:52:45;;;;;;;12.38;8.93;;;21.40;63.40;;;;;;5192911;28;20414;-60
2021/09/22 01:55:23;;;;;;;13.50;9.13;;;21.40;63.60;;;;;;5176673;28;20042;-58
2021/09/22 01:58:11;;;;;;;12.48;9.43;;;21.40;63.50;;;;;;5186033;28;20041;-58
2021/09/22 02:01:03;;;;;;;15.77;7.90;;;21.40;63.50;;;;;;5183417;28;20748;-60
2021/09/22 02:03:50;;;;;;;11.80;8.95;;;21.40;63.50;;;;;;5162582;28;20065;-61
2021/09/22 02:06:36;;;;;;;14.40;8.85;;;21.40;63.40;;;;;;5181428;28;20045;-61
2021/09/22 02:09:09;;;;;;;11.60;8.98;;;21.40;63.40;;;;;;5181976;28;20049;-59
2021/09/22 02:11:43;;;;;;;11.50;8.52;;;21.30;63.40;;;;;;5183488;28;20073;-58
2021/09/22 02:14:17;;;;;;;11.55;8.45;;;21.40;63.50;;;;;;5183488;28;20057;-63
2021/09/22 02:16:56;;;;;;;13.07;8.93;;;21.40;63.50;;;;;;5176615;28;20060;-62
2021/09/22 02:19:36;;;;;;;11.98;8.15;;;21.40;63.40;;;;;;5179520;28;20061;-59
2021/09/22 02:22:29;;;;;;;10.15;8.25;;;21.40;63.40;;;;;;5178571;28;20072;-58
2021/09/22 02:25:17;;;;;;;10.52;8.57;;;21.30;63.40;;;;;;5195077;28;20385;-59
2021/09/22 02:27:52;;;;;;;11.32;8.27;;;21.40;63.40;;;;;;5179725;28;20057;-60
2021/09/22 02:30:26;;;;;;;10.18;8.25;;;21.40;63.40;;;;;;5191783;28;20049;-59
2021/09/22 02:33:03;;;;;;;10.85;7.43;;;21.40;63.40;;;;;;5192352;28;20469;-58
2021/09/22 02:35:37;;;;;;;10.57;7.93;;;21.30;64.00;;;;;;5178686;28;22848;-58
2021/09/22 02:38:31;;;;;;;;;;;21.30;63.30;;;;;;5185414;28;20043;-59
2021/09/22 02:41:06;;;;;;;9.80;8.18;;;21.30;63.10;;;;;;5170906;28;19932;-59
2021/09/22 02:43:38;;;;;;;9.13;7.47;;;21.30;63.40;;;;;;5177107;28;20178;-59
2021/09/22 02:46:11;;;;;;;11.02;7.75;;;21.30;63.40;;;;;;5178616;28;20053;-57
2021/09/22 02:49:00;;;;;;;8.40;7.45;;;21.30;63.30;;;;;;5175348;28;20046;-56
2021/09/22 02:51:33;;;;;;;9.90;7.90;;;21.30;63.30;;;;;;5195233;28;20053;-58
2021/09/22 02:54:06;;;;;;;9.82;8.07;;;21.30;63.30;;;;;;5179854;28;20045;-60
2021/09/22 02:56:46;;;;;;;9.30;7.90;;;21.30;63.30;;;;;;5177305;28;20048;-57
2021/09/22 02:59:18;;;;;;;10.50;7.30;;;21.30;63.20;;;;;;5176959;28;20057;-59
2021/09/22 03:01:53;;;;;;;9.27;7.20;;;21.30;63.20;;;;;;5194480;28;20045;-61
2021/09/22 03:04:27;;;;;;;9.68;8.02;;;21.30;63.20;;;;;;5190199;28;20050;-57
2021/09/22 03:06:59;;;;;;;8.85;7.50;;;21.30;63.20;;;;;;5179467;28;20052;-61
2021/09/22 03:09:31;;;;;;;8.93;7.88;;;21.30;63.20;;;;;;5191765;28;20046;-61
2021/09/22 03:12:04;;;;;;;11.73;7.95;;;21.30;63.20;;;;;;5189311;28;20520;-60
2021/09/22 03:14:38;;;;;;;10.80;7.35;;;21.30;63.20;;;;;;5173757;28;20051;-59
2021/09/22 03:17:10;;;;;;;10.98;7.78;;;21.30;63.10;;;;;;5170803;28;20049;-62
2021/09/22 03:19:43;;;;;;;9.35;7.60;;;21.30;63.10;;;;;;5164864;28;20414;-57
2021/09/22 03:22:17;;;;;;;10.13;7.53;;;21.30;63.00;;;;;;5176361;28;20049;-58
2021/09/22 03:25:24;;;;;;;11.00;7.53;;;21.30;63.10;;;;;;5170270;28;20053;-59
2021/09/22 03:27:57;;;;;;;11.07;7.68;;;21.30;63.30;;;;;;5169128;28;20053;-57
2021/09/22 03:30:30;;;;;;;10.23;7.47;;;21.30;63.50;;;;;;5176497;28;20045;-62
2021/09/22 03:33:17;;;;;;;10.57;7.40;;;21.30;63.60;;;;;;5176377;28;20399;-59
2021/09/22 03:35:51;;;;;;;8.48;6.82;;;21.30;63.70;;;;;;5180578;28;20045;-58
2021/09/22 03:38:24;;;;;;;10.55;7.53;;;21.30;63.80;;;;;;5175147;28;20541;-63
2021/09/22 03:41:01;;;;;;;11.77;7.35;;;21.40;63.90;;;;;;5176092;28;20053;-60
2021/09/22 03:43:35;;;;;;;11.40;8.23;;;21.40;64.00;;;;;;5175148;28;20054;-59
2021/09/22 03:46:11;;;;;;;9.57;7.10;;;21.30;64.00;;;;;;5174302;28;20050;-60
2021/09/22 03:48:44;;;;;;;12.17;7.30;;;21.30;64.20;;;;;;5179637;28;20042;-61
2021/09/22 03:51:16;;;;;;;11.73;7.15;;;21.30;64.20;;;;;;5173914;28;20293;-60
2021/09/22 03:53:53;;;;;;;10.45;7.25;;;21.40;64.40;;;;;;5179091;28;20045;-62
2021/09/22 03:56:26;;;;;;;10.95;6.93;;;21.40;64.40;;;;;;5190124;28;20046;-61
2021/09/22 03:59:00;;;;;;;11.00;6.82;;;21.40;64.50;;;;;;5190795;28;20053;-60
2021/09/22 04:01:33;;;;;;;14.05;7.03;;;21.40;64.50;;;;;;5175216;28;20068;-61
2021/09/22 04:04:06;;;;;;;9.82;6.75;;;21.40;64.60;;;;;;5173846;28;20117;-59
2021/09/22 04:06:39;;;;;;;9.70;7.10;;;21.40;64.70;;;;;;5158830;28;20050;-61
2021/09/22 04:09:14;;;;;;;13.15;7.20;;;21.40;64.70;;;;;;5179738;28;20049;-60
2021/09/22 04:11:47;;;;;;;8.77;6.80;;;21.40;64.80;;;;;;5186521;28;20402;-61
2021/09/22 04:14:19;;;;;;;10.25;6.65;;;21.40;64.80;;;;;;5179714;28;20033;-58
2021/09/22 04:16:52;;;;;;;9.93;6.70;;;21.40;64.90;;;;;;5176783;28;20049;-59
2021/09/22 04:19:25;;;;;;;10.45;7.55;;;21.40;65.00;;;;;;5172536;28;20045;-62
2021/09/22 04:21:57;;;;;;;9.85;6.88;;;21.40;65.00;;;;;;5171507;28;20068;-61
2021/09/22 04:24:30;;;;;;;7.95;6.53;;;21.40;65.10;;;;;;5174809;28;20045;-61
2021/09/22 04:27:03;;;;;;;8.95;6.60;;;21.40;65.20;;;;;;5175325;28;20046;-60
2021/09/22 04:29:51;;;;;;;9.40;7.18;;;21.40;65.20;;;;;;5190082;28;21486;-59
2021/09/22 04:32:42;;;;;;;11.25;6.53;;;21.40;65.20;;;;;;5170276;28;20053;-62
2021/09/22 04:35:34;;;;;;;9.23;5.57;;;21.40;65.30;;;;;;5172579;28;20056;-61
2021/09/22 04:38:27;;;;;;;9.43;6.85;;;21.50;65.40;;;;;;5164545;28;20137;-63
2021/09/22 04:41:22;;;;;;;11.10;6.53;;;21.40;65.50;;;;;;5173943;28;20060;-61
2021/09/22 04:44:13;;;;;;;11.60;6.18;;;21.50;65.60;;;;;;5174689;28;20045;-60
2021/09/22 04:47:05;;;;;;;9.10;6.20;;;21.50;65.70;;;;;;5168620;28;20041;-57
2021/09/22 04:50:03;;;;;;;7.95;6.85;;;21.50;65.80;;;;;;5155991;28;20068;-62
2021/09/22 04:52:54;;;;;;;13.95;7.45;;;21.50;65.80;;;;;;5169047;28;20057;-63
2021/09/22 04:55:45;;;;;;;12.02;6.40;;;21.50;65.90;;;;;;5170370;28;20045;-60
2021/09/22 04:58:36;;;;;;;8.93;6.75;;;21.50;65.80;;;;;;5177221;28;20131;-60
2021/09/22 05:01:28;;;;;;;10.35;6.20;;;21.50;65.90;;;;;;5160398;28;20057;-60
2021/09/22 05:04:19;;;;;;;15.02;6.50;;;21.60;65.90;;;;;;5169488;28;20045;-59
2021/09/22 05:07:10;;;;;;;16.77;6.95;;;21.60;66.00;;;;;;5171964;28;20072;-59
2021/09/22 05:10:02;;;;;;;15.35;6.88;;;21.60;66.10;;;;;;5166920;28;20045;-60
2021/09/22 05:12:54;;;;;;;20.70;6.68;;;21.60;66.10;;;;;;5162260;28;20871;-61
2021/09/22 05:15:45;;;;;;;28.67;8.43;;;21.60;66.20;;;;;;5173734;28;20046;-62
2021/09/22 05:18:39;;;;;;;17.50;7.00;;;21.60;66.20;;;;;;5171347;28;20528;-63
2021/09/22 05:21:30;;;;;;;23.63;6.82;;;21.60;66.10;;;;;;5176044;28;20041;-62
2021/09/22 05:24:22;;;;;;;14.80;6.38;;;21.60;66.00;;;;;;5177601;28;20543;-60
2021/09/22 05:27:13;;;;;;;22.40;6.72;;;21.70;66.00;;;;;;5174621;28;20080;-61
2021/09/22 05:30:05;;;;;;;19.60;6.10;;;21.70;65.90;;;;;;5159284;28;20049;-61
2021/09/22 05:32:56;;;;;;;14.95;7.45;;;21.70;65.90;;;;;;5172437;28;20113;-62
2021/09/22 05:36:07;;;;;;;11.70;6.05;;;21.70;63.70;;;;;;5168279;28;20045;-62
2021/09/22 05:38:58;;;;;;;14.52;6.57;;;21.70;63.80;;;;;;5160327;28;20049;-63
2021/09/22 05:41:49;;;;;;;10.90;6.38;;;21.60;64.40;;;;;;5174352;28;20046;-62
2021/09/22 05:44:40;;;;;;;8.82;6.22;;;21.60;62.70;;;;;;5174299;28;20056;-62
2021/09/22 05:47:31;;;;;;;12.02;7.43;;;21.60;61.50;;;;;;5175781;28;20042;-63
2021/09/22 05:50:22;;;;;;;9.88;6.72;;;21.60;60.90;;;;;;5174318;28;20041;-59
2021/09/22 05:53:13;;;;;;;11.60;7.13;;;21.60;60.30;;;;;;5169618;28;20049;-62
2021/09/22 05:56:04;;;;;;;9.65;7.03;;;21.50;59.90;;;;;;5178183;28;20545;-59
2021/09/22 05:58:56;;;;;;;7.85;6.88;;;21.50;59.80;;;;;;5176592;28;20052;-59
2021/09/22 06:01:47;;;;;;;11.40;7.55;;;21.50;59.60;;;;;;5177726;28;20049;-61
2021/09/22 06:04:58;;;;;;;8.50;6.70;;;21.50;59.60;;;;;;5173375;28;20053;-60
2021/09/22 06:07:49;;;;;;;8.68;7.10;;;21.50;59.60;;;;;;5173531;28;20512;-62
2021/09/22 06:10:40;;;;;;;9.32;7.03;;;21.50;59.50;;;;;;5177132;28;20057;-61
2021/09/22 06:13:25;;;;;;;8.50;7.13;;;21.50;59.50;;;;;;5181341;28;20044;-61
2021/09/22 06:15:58;;;;;;;8.33;6.97;;;21.50;59.50;;;;;;5181672;28;20049;-61
2021/09/22 06:18:30;;;;;;;11.50;8.40;;;21.40;59.50;;;;;;5183836;28;20292;-61
2021/09/22 06:21:04;;;;;;;10.35;7.90;;;21.50;59.60;;;;;;5199094;28;20046;-61
2021/09/22 06:23:37;;;;;;;12.23;7.78;;;21.40;59.50;;;;;;5181462;28;20050;-60
2021/09/22 06:26:10;;;;;;;15.55;9.05;;;21.40;59.60;;;;;;5181909;28;20062;-62
2021/09/22 06:28:42;;;;;;;10.77;8.80;;;21.40;59.70;;;;;;5189474;28;20050;-61
2021/09/22 06:31:15;;;;;;;12.98;9.10;;;21.40;59.80;;;;;;5179548;28;20413;-59
2021/09/22 06:33:49;;;;;;;12.88;8.70;;;21.40;59.80;;;;;;5199512;28;20060;-61
2021/09/22 06:36:29;;;;;;;11.73;8.77;;;21.50;60.00;;;;;;5179870;28;20048;-60
2021/09/22 06:39:03;;;;;;;16.42;9.07;;;21.50;60.00;;;;;;5183000;28;20046;-59
2021/09/22 06:41:35;;;;;;;11.82;9.30;;;21.40;60.00;;;;;;5185461;28;20065;-61
2021/09/22 06:44:08;;;;;;;13.35;9.02;;;21.40;60.10;;;;;;5187984;28;20050;-61
2021/09/22 06:46:41;;;;;;;9.98;7.82;;;21.40;60.10;;;;;;5175457;28;20064;-61
2021/09/22 06:49:13;;;;;;;15.50;9.63;;;21.50;60.80;;;;;;5178594;28;20046;-62
2021/09/22 06:51:46;;;;;;;19.17;9.25;;;21.50;60.60;;;;;;5180374;28;20044;-61
2021/09/22 06:54:20;;;;;;;13.10;10.13;;;21.50;60.40;;;;;;5181351;28;20815;-60
2021/09/22 06:56:53;;;;;;;13.52;9.75;;;21.50;60.30;;;;;;5180203;28;20489;-62
2021/09/22 06:59:25;;;;;;;14.18;10.32;;;21.40;60.30;;;;;;5176273;28;20049;-61
2021/09/22 07:01:58;;;;;;;13.70;9.60;;;21.50;60.20;;;;;;5179976;28;20075;-59
2021/09/22 07:04:30;;;;;;;14.80;10.60;;;21.50;60.30;;;;;;5176607;28;20668;-59
2021/09/22 07:07:03;;;;;;;13.00;10.43;;;21.40;60.30;;;;;;5180083;28;20049;-61
2021/09/22 07:09:36;;;;;;;14.30;11.77;;;21.40;60.10;;;;;;5176090;28;20521;-61
2021/09/22 07:12:09;;;;;;;12.93;10.68;;;21.40;60.30;;;;;;5177990;28;20045;-61
2021/09/22 07:14:41;;;;;;;14.43;10.68;;;21.50;60.40;;;;;;5176519;28;20045;-61
2021/09/22 07:17:14;;;;;;;13.90;10.63;;;21.40;60.10;;;;;;5178293;28;20049;-61
2021/09/22 07:19:46;;;;;;;15.07;10.95;;;21.40;59.90;;;;;;5180396;28;20053;-61
2021/09/22 07:22:19;;;;;;;15.60;10.70;;;21.40;59.70;;;;;;5182951;28;20057;-62
2021/09/22 07:24:52;;;;;;;17.90;11.68;;;21.40;59.60;;;;;;5189947;28;20437;-60
2021/09/22 07:27:24;;;;;;;15.32;11.32;;;21.40;59.50;;;;;;5176817;28;20041;-61
2021/09/22 07:29:57;;;;;;;13.43;10.70;;;21.40;59.40;;;;;;5178198;28;20498;-60
2021/09/22 07:32:29;;;;;;;14.07;10.50;;;21.40;59.30;;;;;;5181107;28;20045;-62
2021/09/22 07:35:02;;;;;;;14.30;10.35;;;21.40;59.50;;;;;;5179690;28;20042;-59
2021/09/22 07:37:35;;;;;;;;;;;21.40;59.60;;;;;;5177288;28;20373;-60
2021/09/22 07:40:09;;;;;;;14.60;10.73;;;21.40;59.50;;;;;;5182018;28;19932;-60
2021/09/22 07:42:41;;;;;;;;;;;21.40;59.00;;;;;;5179175;28;20049;-60
2021/09/22 07:45:14;;;;;;;14.70;10.05;;;21.30;58.50;;;;;;5178425;28;19931;-60
2021/09/22 07:47:46;;;;;;;10.30;9.30;;;21.40;58.90;;;;;;5176383;28;20052;-61
2021/09/22 07:50:19;;;;;;;15.15;10.32;;;21.40;59.00;;;;;;5179714;28;20050;-59
2021/09/22 07:52:51;;;;;;;11.95;9.30;;;21.40;59.20;;;;;;5180679;28;20488;-61
2021/09/22 07:55:24;;;;;;;10.50;8.85;;;21.40;58.40;;;;;;5177929;28;20495;-61
2021/09/22 07:57:56;;;;;;;12.68;9.77;;;21.40;58.20;;;;;;5177054;28;20045;-59
2021/09/22 08:00:29;;;;;;;11.63;9.53;;;21.40;57.80;;;;;;5183196;28;20045;-61
2021/09/22 08:03:02;;;;;;;13.60;9.15;;;21.40;57.70;;;;;;5165311;28;20064;-61
2021/09/22 08:05:38;;;;;;;11.85;9.52;;;21.40;58.00;;;;;;5183407;28;20061;-60
2021/09/22 08:08:11;;;;;;;12.90;9.13;;;21.40;57.90;;;;;;5180831;28;20049;-60
2021/09/22 08:10:44;;;;;;;10.57;9.10;;;21.40;57.90;;;;;;5179185;28;20041;-61
2021/09/22 08:13:16;;;;;;;11.85;8.70;;;21.40;58.10;;;;;;5171973;28;20052;-57
2021/09/22 08:15:49;;;;;;;10.25;8.63;;;21.40;58.20;;;;;;5180968;28;20041;-61
2021/09/22 08:18:21;;;;;;;10.95;8.52;;;21.40;59.00;;;;;;5178464;28;20045;-61
2021/09/22 08:20:54;;;;;;;11.35;8.80;;;21.40;58.50;;;;;;5178594;28;20060;-61
2021/09/22 08:23:27;;;;;;;12.73;8.63;;;21.40;58.20;;;;;;5180476;28;20046;-60
2021/09/22 08:25:59;;;;;;;11.75;9.00;;;21.40;58.00;;;;;;5175095;28;20305;-62
2021/09/22 08:28:32;;;;;;;12.68;9.68;;;21.40;57.90;;;;;;5177415;28;20046;-63
2021/09/22 08:31:04;;;;;;;12.18;9.77;;;21.40;57.60;;;;;;5178139;28;20052;-61
2021/09/22 08:33:37;;;;;;;14.77;10.07;;;21.40;57.50;;;;;;5176621;28;20050;-61
2021/09/22 08:36:10;;;;;;;11.30;9.02;;;21.40;57.10;;;;;;5172636;28;20057;-62
2021/09/22 08:38:42;;;;;;;11.82;9.05;;;21.40;57.50;;;;;;5172572;28;20057;-63
2021/09/22 08:41:14;;;;;;;11.38;9.15;;;21.40;57.40;;;;;;5175793;28;20054;-61
2021/09/22 08:43:47;;;;;;;15.05;8.52;;;21.40;57.90;;;;;;5177237;28;20049;-63
2021/09/22 08:46:20;;;;;;;12.15;9.05;;;21.40;57.90;;;;;;5178577;28;20053;-61
2021/09/22 08:48:52;;;;;;;9.77;8.60;;;21.40;57.70;;;;;;5178032;28;20049;-61
2021/09/22 08:51:25;;;;;;;11.55;9.15;;;21.40;57.90;;;;;;5177584;28;20486;-62
2021/09/22 08:53:59;;;;;;;10.68;8.75;;;21.50;57.90;;;;;;5177013;28;20057;-61
2021/09/22 08:56:31;;;;;;;12.57;9.85;;;21.50;58.30;;;;;;5180108;28;20415;-62
2021/09/22 08:59:05;;;;;;;12.30;9.33;;;21.40;58.00;;;;;;5176057;28;20057;-62
2021/09/22 09:01:38;;;;;;;12.65;9.02;;;21.50;57.50;;;;;;5175338;28;20409;-61
2021/09/22 09:04:20;;;;;;;11.65;8.95;;;21.50;57.40;;;;;;5181249;28;20045;-61
2021/09/22 09:06:56;;;;;;;11.75;7.88;;;21.50;57.50;;;;;;5177853;28;20050;-63
2021/09/22 09:09:43;;;;;;;10.07;8.23;;;21.50;58.00;;;;;;5180096;28;20120;-63
2021/09/22 09:12:22;;;;;;;10.50;8.90;;;21.50;58.10;;;;;;5168336;28;20540;-62
2021/09/22 09:14:59;;;;;;;10.73;8.38;;;21.50;58.40;;;;;;5167277;28;20053;-61
2021/09/22 09:17:41;;;;;;;12.82;7.47;;;21.50;58.40;;;;;;5171834;28;20061;-63
2021/09/22 09:20:18;;;;;;;9.60;7.50;;;21.50;58.60;;;;;;5176181;28;20054;-60
2021/09/22 09:23:01;;;;;;;9.30;7.80;;;21.50;58.70;;;;;;5182070;28;20046;-60
2021/09/22 09:25:41;;;;;;;9.13;7.57;;;21.60;59.00;;;;;;5176236;28;20056;-62
2021/09/22 09:28:39;;;;;;;9.88;7.38;;;21.60;59.10;;;;;;5178385;28;20068;-61
2021/09/22 09:31:12;;;;;;;8.38;7.50;;;21.60;59.20;;;;;;5177570;28;21380;-61
2021/09/22 09:33:49;;;;;;;9.70;7.22;;;21.60;59.30;;;;;;5172255;28;20049;-61
2021/09/22 09:36:36;;;;;;;9.75;7.57;;;21.60;59.50;;;;;;5176863;28;20056;-63
2021/09/22 09:39:12;;;;;;;10.25;7.47;;;21.60;59.50;;;;;;5179693;28;20422;-60
2021/09/22 09:41:50;;;;;;;9.30;7.80;;;21.60;59.60;;;;;;5165521;28;20824;-60
2021/09/22 09:44:30;;;;;;;9.23;7.38;;;21.60;59.70;;;;;;5177104;28;20592;-63
2021/09/22 09:47:10;;;;;;;8.95;6.85;;;21.70;60.00;;;;;;5172720;28;20049;-63
2021/09/22 09:49:43;;;;;;;9.63;7.40;;;21.60;60.00;;;;;;5173290;28;20057;-63
2021/09/22 09:52:21;;;;;;;8.38;6.80;;;21.60;60.10;;;;;;5174618;28;20041;-60
2021/09/22 09:55:15;;;;;;;7.93;6.90;;;21.70;60.20;;;;;;5173520;28;20053;-62
2021/09/22 09:57:56;;;;;;;9.55;7.10;;;21.70;60.30;;;;;;5177607;28;20065;-60
2021/09/22 10:00:37;;;;;;;7.25;6.55;;;21.70;60.40;;;;;;5174507;28;20053;-61
2021/09/22 10:03:17;;;;;;;8.50;6.93;;;21.70;60.50;;;;;;5176586;28;20045;-61
2021/09/22 10:05:53;;;;;;;7.63;6.78;;;21.70;60.60;;;;;;5179176;28;20042;-59
2021/09/22 10:08:28;;;;;;;7.85;7.05;;;21.70;60.70;;;;;;5179291;28;20061;-59
2021/09/22 10:11:03;;;;;;;8.90;7.05;;;21.70;60.70;;;;;;5178900;28;20421;-62
2021/09/22 10:13:37;;;;;;;9.73;7.13;;;21.70;60.80;;;;;;5176918;28;20045;-62
2021/09/22 10:16:10;;;;;;;7.55;6.75;;;21.70;60.90;;;;;;5175858;28;25843;-60
2021/09/22 10:18:43;;;;;;;7.10;6.38;;;21.70;60.90;;;;;;5162626;28;20053;-62
2021/09/22 10:21:19;;;;;;;8.13;7.27;;;21.70;61.00;;;;;;5177841;28;20049;-56
2021/09/22 10:24:06;;;;;;;7.28;6.50;;;21.70;61.00;;;;;;5250430;27;20867;-61
2021/09/22 10:26:50;;;;;;;8.23;6.60;;;21.70;61.10;;;;;;5206569;28;20507;-61
2021/09/22 10:29:37;;;;;;;7.90;7.10;;;21.70;61.20;;;;;;5207810;28;20462;-63
2021/09/22 10:32:48;;;;;;;8.80;6.60;;;21.70;61.20;;;;;;5198285;28;20447;-60
2021/09/22 10:35:35;;;;;;;7.10;6.40;;;21.70;61.30;;;;;;5209255;28;20499;-61
2021/09/22 10:38:19;;;;;;;8.13;6.45;;;21.70;61.40;;;;;;5251274;27;20504;-61
2021/09/22 10:41:02;;;;;;;7.28;6.47;;;21.80;61.50;;;;;;5257101;27;20432;-62
2021/09/22 10:43:45;;;;;;;7.68;6.82;;;21.80;61.50;;;;;;5226878;27;20512;-62
2021/09/22 10:46:29;;;;;;;7.97;6.85;;;21.80;61.60;;;;;;5243876;27;20519;-61
2021/09/22 10:49:14;;;;;;;7.85;6.45;;;21.80;61.60;;;;;;5233179;27;20499;-60
2021/09/22 10:51:57;;;;;;;7.47;6.70;;;21.80;61.70;;;;;;5240295;27;20857;-60
2021/09/22 10:55:06;;;;;;;7.82;6.50;;;21.80;61.60;;;;;;5207677;28;20510;-60
2021/09/22 10:58:08;;;;;;;6.43;5.82;;;21.80;61.70;;;;;;5233362;27;20780;-60
2021/09/22 11:00:51;;;;;;;6.60;5.90;;;21.80;61.70;;;;;;5197060;28;20508;-61
2021/09/22 11:04:00;;;;;;;7.28;6.47;;;21.90;61.80;;;;;;5194793;28;20862;-62
2021/09/22 11:06:47;;;;;;;7.97;6.57;;;21.90;62.40;;;;;;5204622;28;20400;-60
2021/09/22 11:09:32;;;;;;;7.47;6.47;;;21.90;61.90;;;;;;5186047;28;20511;-61
2021/09/22 11:12:16;;;;;;;6.75;5.65;;;21.90;61.90;;;;;;5255802;27;20538;-60
2021/09/22 11:14:59;;;;;;;7.43;6.57;;;21.90;62.00;;;;;;5212787;28;20515;-61
2021/09/22 11:17:43;;;;;;;6.68;5.95;;;21.90;62.00;;;;;;5322586;27;20519;-60
2021/09/22 11:20:27;;;;;;;7.03;5.97;;;21.90;62.00;;;;;;5190934;27;20968;-61
2021/09/22 11:23:11;;;;;;;6.90;6.20;;;22.00;62.10;;;;;;5211349;27;20497;-60
2021/09/22 11:26:09;;;;;;;6.78;5.78;;;22.00;62.10;;;;;;5268205;27;20513;-59
2021/09/22 11:28:53;;;;;;;6.22;5.63;;;22.10;62.10;;;;;;5252720;27;20688;-59
2021/09/22 11:31:37;;;;;;;6.63;5.55;;;22.10;62.10;;;;;;5246706;27;20872;-59
2021/09/22 11:34:35;;;;;;;5.95;5.35;;;22.10;62.10;;;;;;5206450;28;20839;-61
2021/09/22 11:37:19;;;;;;;6.15;5.55;;;22.10;62.00;;;;;;5221879;27;20509;-60
2021/09/22 11:40:15;;;;;;;7.43;5.72;;;22.10;62.10;;;;;;5240449;27;21000;-60
2021/09/22 11:43:06;;;;;;;5.90;5.30;;;22.10;62.20;;;;;;5265753;27;20795;-61
2021/09/22 11:45:52;;;;;;;6.35;5.75;;;22.20;62.20;;;;;;5218525;28;20498;-60
2021/09/22 11:48:37;;;;;;;6.55;5.53;;;22.20;62.90;;;;;;5209485;28;20534;-61
2021/09/22 11:51:21;;;;;;;6.25;5.63;;;22.20;62.20;;;;;;5212114;27;21114;-62
2021/09/22 11:54:19;;;;;;;6.15;5.55;;;22.20;62.20;;;;;;5188108;28;20501;-60
2021/09/22 11:57:10;;;;;;;5.03;4.53;;;22.30;62.20;;;;;;4176897;27;10000375;-58
2021/09/22 11:59:56;;;;;;;6.10;5.35;;;22.30;62.20;;;;;;5198675;28;20511;-61
2021/09/22 12:02:39;;;;;;;15.57;5.50;;;22.40;62.20;;;;;;5190005;28;20871;-61
2021/09/22 12:05:23;;;;;;;5.88;5.10;;;22.40;62.20;;;;;;5195923;28;20792;-61
2021/09/22 12:08:07;;;;;;;5.70;4.93;;;22.40;62.40;;;;;;5207837;27;20402;-61
2021/09/22 12:10:51;;;;;;;6.15;5.55;;;22.40;62.50;;;;;;5209479;27;20556;-61
2021/09/22 12:13:48;;;;;;;6.93;5.10;;;22.50;62.60;;;;;;5227295;27;21096;-61
2021/09/22 12:16:31;;;;;;;6.07;5.28;;;22.50;62.90;;;;;;5215967;27;20521;-63
2021/09/22 12:19:16;;;;;;;5.93;5.32;;;22.50;62.80;;;;;;5204841;28;20409;-61
2021/09/22 12:22:01;;;;;;;5.70;4.93;;;22.50;62.90;;;;;;5246664;27;20515;-59
2021/09/22 12:24:46;;;;;;;6.13;5.25;;;22.50;63.00;;;;;;5238726;27;20538;-62
2021/09/22 12:27:31;;;;;;;6.60;4.65;;;22.40;63.00;;;;;;5223846;27;20501;-62
2021/09/22 12:30:15;;;;;;;7.20;5.25;;;22.40;63.00;;;;;;5208867;28;21190;-65
2021/09/22 12:33:07;;;;;;;5.93;5.00;;;22.40;63.10;;;;;;5228498;27;20599;-67
2021/09/22 12:35:50;;;;;;;7.38;5.05;;;22.40;63.20;;;;;;5191741;28;20490;-70
2021/09/22 12:38:46;;;;;;;6.03;4.82;;;22.50;63.10;;;;;;5181562;27;20498;-70
2021/09/22 12:41:30;;;;;;;6.63;5.10;;;22.50;62.90;;;;;;5192658;27;20416;-66
2021/09/22 12:44:13;;;;;;;8.00;4.95;;;22.60;62.80;;;;;;5244910;27;20516;-70
2021/09/22 12:46:56;;;;;;;7.53;4.90;;;22.70;62.70;;;;;;5203941;28;20496;-69
2021/09/22 12:49:40;;;;;;;6.88;4.78;;;22.80;62.50;;;;;;5183865;28;20517;-67
2021/09/22 12:52:22;;;;;;;5.93;4.65;;;22.80;62.90;;;;;;5203642;28;20916;-68
2021/09/22 12:55:23;;;;;;;9.00;4.47;;;22.90;62.10;;;;;;5257619;27;20890;-66
2021/09/22 12:58:07;;;;;;;7.13;5.10;;;23.00;61.90;;;;;;5225175;27;20505;-65
2021/09/22 13:00:57;;;;;;;6.18;5.18;;;23.10;61.80;;;;;;5186663;27;20461;-67
2021/09/22 13:03:49;;;;;;;5.47;4.40;;;23.30;61.20;;;;;;5120851;28;20422;-67
2021/09/22 13:06:35;;;;;;;11.23;5.50;;;23.30;61.20;;;;;;5142328;27;20463;-67
2021/09/22 13:09:39;;;;;;;7.72;5.13;;;23.40;61.10;;;;;;5159350;28;21167;-68
2021/09/22 13:12:32;;;;;;;5.07;4.57;;;23.40;60.90;;;;;;5207287;27;20416;-74
2021/09/22 13:15:24;;;;;;;5.78;4.70;;;23.40;60.90;;;;;;5157660;28;20623;-69
2021/09/22 13:18:11;;;;;;;4.85;4.32;;;23.50;60.80;;;;;;5191322;27;20806;-69
2021/09/22 13:20:57;;;;;;;8.93;4.75;;;23.50;60.90;;;;;;5200622;27;20414;-71
2021/09/22 13:23:43;;;;;;;6.82;4.70;;;23.50;60.70;;;;;;5199638;27;20518;-74
2021/09/22 13:26:29;;;;;;;6.10;4.45;;;23.60;60.70;;;;;;5184999;27;20419;-69
2021/09/22 13:29:15;;;;;;;6.75;4.60;;;23.60;60.70;;;;;;5134237;28;20793;-73
2021/09/22 13:32:05;;;;;;;7.63;4.90;;;23.60;60.80;;;;;;5214264;27;20634;-69
2021/09/22 13:34:55;;;;;;;5.72;4.70;;;23.60;60.80;;;;;;5197820;27;20373;-67
2021/09/22 13:37:39;;;;;;;4.97;4.40;;;23.60;60.80;;;;;;5199370;27;20419;-74
2021/09/22 13:40:22;;;;;;;5.10;4.28;;;23.60;60.80;;;;;;5163513;28;20420;-73
2021/09/22 13:43:05;;;;;;;7.45;4.47;;;23.60;61.10;;;;;;5196754;27;20887;-74
2021/09/22 13:45:52;;;;;;;8.80;4.78;;;23.70;61.00;;;;;;5209707;27;21191;-69
2021/09/22 13:48:36;;;;;;;11.52;4.65;;;23.80;61.00;;;;;;5192133;27;20407;-67